createdAt,value
2022-10-20T00:04:21.048Z,30.55
2022-10-20T00:06:47.694Z,28.85
2022-10-20T00:09:14.334Z,29.80
2022-10-20T00:11:40.915Z,30.75
2022-10-20T00:14:07.556Z,34.13
2022-10-20T00:16:35.959Z,33.40
2022-10-20T00:19:02.668Z,40.72
2022-10-20T00:21:29.384Z,32.92
2022-10-20T00:23:56.204Z,37.42
2022-10-20T00:26:24.379Z,35.95
2022-10-20T00:28:51.170Z,31.15
2022-10-20T00:31:18.320Z,42.58
2022-10-20T00:33:45.564Z,40.25
2022-10-20T00:36:13.945Z,37.40
2022-10-20T00:38:40.598Z,40.47
2022-10-20T00:41:07.313Z,44.40
2022-10-20T00:43:57.786Z,42.60
2022-10-20T00:46:26.981Z,44.63
2022-10-20T00:48:58.241Z,42.10
2022-10-20T00:51:27.019Z,38.88
2022-10-20T00:53:55.155Z,44.17
2022-10-20T00:56:22.253Z,36.67
2022-10-20T00:58:48.999Z,39.70
2022-10-20T01:01:15.732Z,38.53
2022-10-20T01:03:46.216Z,38.33
2022-10-20T01:06:14.503Z,38.20
2022-10-20T01:08:41.194Z,41.30
2022-10-20T01:11:47.649Z,41.85
2022-10-20T01:14:39.073Z,42.95
2022-10-20T01:17:45.547Z,36.97
2022-10-20T01:20:45.127Z,39.88
2022-10-20T01:23:51.620Z,36.30
2022-10-20T01:29:40.014Z,39.63
2022-10-20T01:32:16.636Z,34.63
2022-10-20T01:40:25.948Z,42.42
2022-10-20T01:42:53.031Z,41.35
2022-10-20T01:45:20.502Z,42.55
2022-10-20T01:47:47.721Z,46.83
2022-10-20T01:50:14.332Z,40.33
2022-10-20T01:52:40.925Z,45.47
2022-10-20T01:55:16.287Z,41.42
2022-10-20T01:58:01.548Z,52.88
2022-10-20T02:00:28.144Z,60.95
2022-10-20T02:03:17.167Z,45.92
2022-10-20T02:06:08.683Z,41.03
2022-10-20T02:08:42.804Z,48.17
2022-10-20T02:11:14.179Z,44.75
2022-10-20T02:13:40.802Z,44.58
2022-10-20T02:16:12.822Z,43.08
2022-10-20T02:18:41.733Z,42.85
2022-10-20T02:21:08.629Z,40.45
2022-10-20T02:23:37.484Z,44.88
2022-10-20T02:26:07.763Z,45.58
2022-10-20T02:28:35.484Z,43.08
2022-10-20T02:31:03.061Z,45.30
2022-10-20T02:33:29.791Z,47.33
2022-10-20T02:35:58.395Z,50.97
2022-10-20T02:38:24.987Z,38.92
2022-10-20T02:40:51.607Z,46.58
2022-10-20T02:43:18.189Z,40.83
2022-10-20T02:45:44.877Z,45.42
2022-10-20T02:48:11.445Z,41.33
2022-10-20T02:50:38.671Z,44.15
2022-10-20T02:53:05.506Z,40.88
2022-10-20T02:55:32.159Z,40.40
2022-10-20T02:57:58.856Z,38.38
2022-10-20T03:00:29.424Z,42.55
2022-10-20T03:02:56.194Z,38.75
2022-10-20T03:05:23.036Z,37.15
2022-10-20T03:07:49.815Z,41.40
2022-10-20T03:10:16.539Z,40.85
2022-10-20T03:12:43.118Z,36.67
2022-10-20T03:15:10.259Z,34.80
2022-10-20T03:17:37.255Z,35.65
2022-10-20T03:20:05.104Z,35.63
2022-10-20T03:22:31.697Z,32.08
2022-10-20T03:24:58.335Z,34.72
2022-10-20T03:27:24.963Z,37.35
2022-10-20T03:29:51.577Z,37.42
2022-10-20T03:32:18.231Z,32.25
2022-10-20T03:34:44.912Z,33.17
2022-10-20T03:37:11.482Z,34.30
2022-10-20T03:39:38.076Z,32.55
2022-10-20T03:42:04.789Z,27.67
2022-10-20T03:44:31.460Z,27.63
2022-10-20T03:46:59.984Z,34.28
2022-10-20T03:49:26.708Z,27.25
2022-10-20T03:51:53.368Z,37.95
2022-10-20T03:54:20.133Z,35.58
2022-10-20T03:56:46.734Z,34.10
2022-10-20T03:59:13.332Z,37.60
2022-10-20T04:01:42.555Z,36.92
2022-10-20T04:04:09.158Z,35.83
2022-10-20T04:06:35.755Z,36.05
2022-10-20T04:09:02.462Z,35.70
2022-10-20T04:11:29.171Z,36.28
2022-10-20T04:13:55.802Z,32.72
2022-10-20T04:16:22.491Z,36.30
2022-10-20T04:18:49.091Z,29.70
2022-10-20T04:21:15.684Z,34.17
2022-10-20T04:23:42.328Z,31.67
2022-10-20T04:26:10.539Z,36.53
2022-10-20T04:28:37.497Z,32.53
2022-10-20T04:31:04.222Z,35.83
2022-10-20T04:33:30.920Z,31.00
2022-10-20T04:35:59.902Z,41.05
2022-10-20T04:38:26.538Z,34.17
2022-10-20T04:40:59.086Z,35.50
2022-10-20T04:43:28.446Z,35.63
2022-10-20T04:45:59.886Z,35.88
2022-10-20T04:48:28.311Z,34.05
2022-10-20T04:51:03.726Z,42.17
2022-10-20T04:53:30.397Z,38.13
2022-10-20T04:55:57.355Z,38.42
2022-10-20T04:58:24.276Z,40.58
2022-10-20T05:00:50.991Z,33.50
2022-10-20T05:03:19.002Z,34.95
2022-10-20T05:05:47.144Z,33.47
2022-10-20T05:08:13.892Z,33.20
2022-10-20T05:10:40.549Z,34.70
2022-10-20T05:13:07.216Z,30.08
2022-10-20T05:15:33.858Z,38.83
2022-10-20T05:18:00.608Z,40.88
2022-10-20T05:20:27.215Z,31.15
2022-10-20T05:22:53.812Z,35.00
2022-10-20T05:25:36.870Z,41.65
2022-10-20T05:28:04.188Z,41.08
2022-10-20T05:30:31.642Z,37.05
2022-10-20T05:32:58.264Z,44.97
2022-10-20T05:35:25.054Z,36.20
2022-10-20T05:37:51.697Z,34.30
2022-10-20T05:40:18.287Z,32.03
2022-10-20T05:42:44.929Z,38.95
2022-10-20T05:45:11.647Z,34.28
2022-10-20T05:47:42.720Z,36.83
2022-10-20T05:50:10.614Z,40.97
2022-10-20T05:52:37.814Z,37.35
2022-10-20T05:55:04.990Z,44.60
2022-10-20T05:57:31.619Z,41.05
2022-10-20T05:59:58.305Z,37.17
2022-10-20T06:02:24.934Z,33.13
2022-10-20T06:04:51.544Z,34.60
2022-10-20T06:07:18.249Z,36.80
2022-10-20T06:09:44.888Z,36.38
2022-10-20T06:12:11.498Z,32.83
2022-10-20T06:14:38.337Z,35.67
2022-10-20T06:17:23.096Z,39.95
2022-10-20T06:19:51.295Z,38.05
2022-10-20T06:22:17.978Z,35.33
2022-10-20T06:24:44.704Z,46.13
2022-10-20T06:27:11.309Z,42.47
2022-10-20T06:29:38.108Z,36.90
2022-10-20T06:32:05.089Z,37.17
2022-10-20T06:34:31.926Z,45.30
2022-10-20T06:36:58.616Z,38.72
2022-10-20T06:39:25.324Z,38.85
2022-10-20T06:41:53.204Z,36.55
2022-10-20T06:44:22.449Z,38.50
2022-10-20T06:46:49.189Z,41.40
2022-10-20T06:49:15.860Z,44.65
2022-10-20T06:51:42.471Z,44.35
2022-10-20T06:54:09.401Z,45.25
2022-10-20T06:56:36.432Z,35.53
2022-10-20T06:59:03.430Z,26.33
2022-10-20T07:01:31.665Z,40.35
2022-10-20T07:03:59.996Z,40.17
2022-10-20T07:06:46.483Z,35.28
2022-10-20T07:09:22.050Z,36.67
2022-10-20T07:11:53.279Z,29.58
2022-10-20T07:14:20.673Z,31.30
2022-10-20T07:16:59.249Z,31.48
2022-10-20T07:19:43.278Z,36.60
2022-10-20T07:22:15.154Z,37.42
2022-10-20T07:24:45.819Z,28.25
2022-10-20T07:27:12.549Z,34.08
2022-10-20T07:29:39.421Z,32.28
2022-10-20T07:32:06.164Z,23.98
2022-10-20T07:34:35.652Z,35.78
2022-10-20T07:37:02.563Z,26.95
2022-10-20T07:39:29.490Z,29.50
2022-10-20T07:41:56.326Z,26.50
2022-10-20T07:44:23.849Z,23.88
2022-10-20T07:46:56.829Z,27.73
2022-10-20T07:49:43.918Z,25.55
2022-10-20T07:52:10.416Z,24.27
2022-10-20T07:54:39.571Z,22.23
2022-10-20T07:57:06.339Z,29.05
2022-10-20T07:59:32.993Z,24.90
2022-10-20T08:02:00.197Z,32.20
2022-10-20T08:04:27.716Z,26.85
2022-10-20T08:06:54.405Z,26.05
2022-10-20T08:09:21.091Z,37.97
2022-10-20T08:11:51.369Z,32.38
2022-10-20T08:14:21.078Z,36.08
2022-10-20T08:16:48.557Z,29.88
2022-10-20T08:19:16.082Z,26.30
2022-10-20T08:21:42.749Z,33.28
2022-10-20T08:24:09.364Z,32.90
2022-10-20T08:26:36.018Z,24.10
2022-10-20T08:29:02.743Z,30.25
2022-10-20T08:31:29.454Z,21.35
2022-10-20T08:33:56.827Z,25.92
2022-10-20T08:36:23.472Z,35.92
2022-10-20T08:38:50.097Z,25.73
2022-10-20T08:41:20.561Z,36.28
2022-10-20T08:43:48.313Z,26.45
2022-10-20T08:46:15.963Z,23.33
2022-10-20T08:48:42.667Z,22.83
2022-10-20T08:51:21.200Z,26.40
2022-10-20T08:53:48.289Z,21.70
2022-10-20T08:56:14.973Z,21.83
2022-10-20T08:58:43.423Z,22.20
2022-10-20T09:01:19.713Z,18.08
2022-10-20T09:03:47.134Z,19.17
2022-10-20T09:06:15.295Z,20.85
2022-10-20T09:08:42.342Z,27.30
2022-10-20T09:11:11.614Z,20.13
2022-10-20T09:13:38.455Z,29.10
2022-10-20T09:16:06.943Z,20.77
2022-10-20T09:18:33.613Z,22.58
2022-10-20T09:21:05.772Z,16.10
2022-10-20T09:23:42.015Z,21.52
2022-10-20T09:26:30.507Z,15.38
2022-10-20T09:29:13.515Z,24.40
2022-10-20T09:31:44.981Z,16.90
2022-10-20T09:34:32.415Z,17.48
2022-10-20T09:37:09.799Z,18.40
2022-10-20T09:39:57.076Z,13.60
2022-10-20T09:42:34.436Z,18.98
2022-10-20T09:45:05.436Z,15.55
2022-10-20T09:47:32.093Z,22.27
2022-10-20T09:50:01.564Z,21.88
2022-10-20T09:52:33.996Z,19.95
2022-10-20T09:55:03.748Z,16.27
2022-10-20T09:57:30.419Z,13.80
2022-10-20T10:00:04.540Z,16.92
2022-10-20T10:02:39.859Z,21.80
2022-10-20T10:05:19.196Z,12.43
2022-10-20T10:07:45.849Z,13.30
2022-10-20T10:12:57.518Z,21.08
2022-10-20T10:15:27.897Z,14.35
2022-10-20T10:17:54.517Z,17.38
2022-10-20T10:20:38.765Z,15.73
2022-10-20T10:23:25.611Z,12.43
2022-10-20T10:25:52.637Z,16.50
2022-10-20T10:28:24.433Z,14.95
2022-10-20T10:30:51.264Z,15.10
2022-10-20T10:33:34.004Z,14.20
2022-10-20T10:36:02.773Z,20.55
2022-10-20T10:38:29.484Z,24.55
2022-10-20T10:41:36.501Z,18.38
2022-10-20T10:44:15.713Z,14.40
2022-10-20T10:49:41.953Z,16.08
2022-10-20T10:52:19.011Z,13.30
2022-10-20T10:54:51.910Z,19.90
2022-10-20T10:57:25.029Z,16.65
2022-10-20T10:59:52.237Z,13.07
2022-10-20T11:02:29.412Z,14.60
2022-10-20T11:05:35.891Z,15.20
2022-10-20T11:08:12.304Z,16.83
2022-10-20T11:11:09.592Z,24.85
2022-10-20T11:16:21.305Z,32.38
2022-10-20T11:19:20.140Z,15.30
2022-10-20T11:22:16.978Z,24.30
2022-10-20T11:24:52.837Z,29.75
2022-10-20T11:27:23.516Z,17.25
2022-10-20T11:29:53.953Z,11.98
2022-10-20T11:32:26.589Z,13.82
2022-10-20T11:37:32.689Z,12.35
2022-10-20T11:40:12.812Z,16.80
2022-10-20T11:42:44.942Z,14.43
2022-10-20T11:45:30.206Z,9.43
2022-10-20T11:48:03.094Z,9.77
2022-10-20T11:50:29.681Z,11.85
2022-10-20T11:53:21.484Z,25.83
2022-10-20T11:56:11.076Z,11.70
2022-10-20T11:59:06.658Z,8.63
2022-10-20T12:01:41.542Z,10.20
2022-10-20T12:04:37.957Z,11.27
2022-10-20T12:07:31.476Z,18.92
2022-10-20T12:10:27.815Z,14.73
2022-10-20T12:13:06.414Z,16.17
2022-10-20T12:15:33.106Z,9.82
2022-10-20T12:18:05.429Z,13.30
2022-10-20T12:23:45.712Z,10.50
2022-10-20T12:26:34.957Z,9.25
2022-10-20T12:29:06.622Z,14.40
2022-10-20T12:32:13.137Z,10.35
2022-10-20T12:34:40.634Z,10.52
2022-10-20T12:37:28.434Z,6.50
2022-10-20T12:39:56.540Z,10.23
2022-10-20T12:42:28.967Z,11.00
2022-10-20T12:45:05.090Z,9.18
2022-10-20T12:47:32.358Z,9.98
2022-10-20T12:50:27.122Z,12.90
2022-10-20T12:52:53.677Z,13.02
2022-10-20T12:55:25.811Z,15.32
2022-10-20T12:58:09.480Z,8.90
2022-10-20T13:03:47.804Z,13.80
2022-10-20T13:11:52.932Z,6.00
2022-10-20T13:14:44.411Z,11.18
2022-10-20T13:17:17.751Z,12.75
2022-10-20T13:19:48.975Z,10.60
2022-10-20T13:22:37.760Z,12.35
2022-10-20T13:25:06.756Z,10.63
2022-10-20T13:27:33.531Z,9.93
2022-10-20T13:30:00.330Z,15.05
2022-10-20T13:32:47.781Z,10.18
2022-10-20T13:35:29.401Z,11.05
2022-10-20T13:38:00.345Z,8.75
2022-10-20T13:40:49.041Z,10.25
2022-10-20T13:43:34.785Z,10.60
2022-10-20T13:49:13.747Z,13.63
2022-10-20T13:51:45.353Z,10.52
2022-10-20T13:54:32.620Z,10.65
2022-10-20T13:56:59.249Z,11.75
2022-10-20T13:59:27.755Z,14.18
2022-10-20T14:01:56.406Z,13.77
2022-10-20T14:04:28.194Z,11.77
2022-10-20T14:06:55.382Z,9.87
2022-10-20T14:09:23.983Z,8.23
2022-10-20T14:11:53.439Z,10.63
2022-10-20T14:14:23.250Z,14.00
2022-10-20T14:17:01.663Z,12.02
2022-10-20T14:19:28.741Z,14.93
2022-10-20T14:22:01.989Z,9.07
2022-10-20T14:24:32.106Z,11.60
2022-10-20T14:27:00.046Z,12.50
2022-10-20T14:29:29.337Z,9.88
2022-10-20T14:31:56.359Z,7.60
2022-10-20T14:34:24.747Z,13.73
2022-10-20T14:36:51.860Z,10.90
2022-10-20T14:39:39.074Z,12.35
2022-10-20T14:42:19.591Z,14.15
2022-10-20T14:44:46.302Z,11.85
2022-10-20T14:47:13.170Z,10.25
2022-10-20T14:49:40.422Z,10.57
2022-10-20T14:54:54.937Z,17.13
2022-10-20T15:00:22.853Z,14.57
2022-10-20T15:02:56.276Z,20.90
2022-10-20T15:05:40.563Z,12.57
2022-10-20T15:08:09.375Z,11.70
2022-10-20T15:10:36.066Z,14.52
2022-10-20T15:13:02.819Z,9.55
2022-10-20T15:15:35.701Z,17.58
2022-10-20T15:18:13.153Z,22.98
2022-10-20T15:20:42.360Z,9.95
2022-10-20T15:25:58.303Z,21.30
2022-10-20T15:31:02.695Z,16.85
2022-10-20T15:33:29.346Z,16.65
2022-10-20T15:35:55.999Z,14.13
2022-10-20T15:38:22.673Z,14.88
2022-10-20T15:40:49.383Z,12.13
2022-10-20T15:43:17.180Z,10.82
2022-10-20T15:45:45.886Z,14.57
2022-10-20T15:48:12.813Z,10.57
2022-10-20T15:50:39.524Z,15.02
2022-10-20T15:53:06.341Z,15.98
2022-10-20T15:55:34.699Z,18.25
2022-10-20T15:58:01.571Z,17.48
2022-10-20T16:00:28.831Z,14.02
2022-10-20T16:02:56.146Z,15.65
2022-10-20T16:05:24.241Z,14.43
2022-10-20T16:07:53.029Z,23.88
2022-10-20T16:10:21.592Z,12.63
2022-10-20T16:12:48.646Z,12.35
2022-10-20T16:15:15.322Z,12.05
2022-10-20T16:17:41.928Z,14.70
2022-10-20T16:20:09.243Z,13.80
2022-10-20T16:22:36.304Z,15.52
2022-10-20T16:25:03.766Z,19.10
2022-10-20T16:27:31.107Z,19.15
2022-10-20T16:29:57.925Z,18.27
2022-10-20T16:32:24.519Z,13.40
2022-10-20T16:34:51.158Z,13.73
2022-10-20T16:37:17.719Z,13.85
2022-10-20T16:39:44.349Z,15.35
2022-10-20T16:42:11.051Z,17.85
2022-10-20T16:44:37.774Z,16.65
2022-10-20T16:47:04.402Z,19.38
2022-10-20T16:49:30.956Z,18.27
2022-10-20T16:51:57.625Z,11.43
2022-10-20T16:54:24.298Z,14.63
2022-10-20T16:56:50.938Z,16.95
2022-10-20T16:59:17.519Z,21.35
2022-10-20T17:01:44.911Z,13.48
2022-10-20T17:04:12.192Z,12.98
2022-10-20T17:06:38.988Z,13.80
2022-10-20T17:09:05.733Z,13.50
2022-10-20T17:11:32.414Z,13.57
2022-10-20T17:13:59.161Z,12.20
2022-10-20T17:16:29.463Z,12.43
2022-10-20T17:18:56.693Z,11.00
2022-10-20T17:21:23.429Z,10.90
2022-10-20T17:23:50.090Z,18.80
2022-10-20T17:26:20.025Z,12.73
2022-10-20T17:28:46.821Z,19.52
2022-10-20T17:31:17.959Z,15.65
2022-10-20T17:33:45.032Z,14.27
2022-10-20T17:36:12.547Z,16.42
2022-10-20T17:38:40.121Z,15.55
2022-10-20T17:41:08.226Z,13.95
2022-10-20T17:43:34.976Z,24.38
2022-10-20T17:46:04.506Z,11.30
2022-10-20T17:48:31.305Z,16.13
2022-10-20T17:51:05.607Z,13.57
2022-10-20T17:53:33.289Z,17.38
2022-10-20T17:56:04.265Z,11.82
2022-10-20T17:58:31.043Z,12.68
2022-10-20T18:01:18.621Z,13.27
2022-10-20T18:03:45.798Z,13.13
2022-10-20T18:06:16.083Z,20.38
2022-10-20T18:08:42.810Z,16.42
2022-10-20T18:11:12.213Z,16.38
2022-10-20T18:13:38.902Z,14.55
2022-10-20T18:16:06.990Z,17.55
2022-10-20T18:18:33.674Z,15.95
2022-10-20T18:21:00.325Z,15.35
2022-10-20T18:23:29.537Z,16.60
2022-10-20T18:25:56.704Z,18.58
2022-10-20T18:28:24.184Z,13.18
2022-10-20T18:30:51.153Z,15.02
2022-10-20T18:33:17.837Z,15.05
2022-10-20T18:35:44.468Z,15.52
2022-10-20T18:38:11.089Z,16.20
2022-10-20T18:40:37.674Z,14.32
2022-10-20T18:43:04.301Z,11.45
2022-10-20T18:45:30.965Z,16.58
2022-10-20T18:47:57.648Z,13.13
2022-10-20T18:50:24.279Z,9.32
2022-10-20T18:52:50.950Z,12.38
2022-10-20T18:55:17.755Z,15.02
2022-10-20T18:57:44.372Z,18.80
2022-10-20T19:00:11.616Z,11.70
2022-10-20T19:02:38.388Z,12.30
2022-10-20T19:05:05.443Z,9.88
2022-10-20T19:07:33.342Z,14.20
2022-10-20T19:09:59.943Z,16.20
2022-10-20T19:12:26.560Z,16.20
2022-10-20T19:14:53.219Z,12.23
2022-10-20T19:17:19.850Z,12.13
2022-10-20T19:19:46.512Z,14.65
2022-10-20T19:22:13.092Z,14.60
2022-10-20T19:24:40.594Z,11.55
2022-10-20T19:27:25.649Z,11.98
2022-10-20T19:29:54.530Z,11.65
2022-10-20T19:32:21.118Z,10.68
2022-10-20T19:34:47.700Z,16.23
2022-10-20T19:37:14.372Z,12.52
2022-10-20T19:39:41.556Z,12.50
2022-10-20T19:42:08.354Z,19.13
2022-10-20T19:44:35.077Z,19.23
2022-10-20T19:47:01.959Z,12.70
2022-10-20T19:49:28.601Z,10.77
2022-10-20T19:51:55.570Z,11.65
2022-10-20T19:54:22.334Z,13.77
2022-10-20T19:56:48.975Z,11.35
2022-10-20T19:59:15.617Z,10.52
2022-10-20T20:01:42.338Z,9.73
2022-10-20T20:04:10.710Z,11.13
2022-10-20T20:06:37.480Z,10.73
2022-10-20T20:09:06.307Z,14.70
2022-10-20T20:11:34.720Z,11.18
2022-10-20T20:14:05.409Z,11.43
2022-10-20T20:16:32.141Z,14.95
2022-10-20T20:18:58.808Z,11.68
2022-10-20T20:21:25.688Z,15.18
2022-10-20T20:24:00.107Z,11.35
2022-10-20T20:26:29.565Z,15.65
2022-10-20T20:28:56.272Z,13.02
2022-10-20T20:31:23.109Z,14.15
2022-10-20T20:33:49.852Z,18.17
2022-10-20T20:36:16.539Z,16.38
2022-10-20T20:38:43.156Z,13.25
2022-10-20T20:41:13.181Z,15.02
2022-10-20T20:43:40.803Z,13.88
2022-10-20T20:46:10.394Z,14.88
2022-10-20T20:48:37.001Z,12.88
2022-10-20T20:51:03.887Z,12.50
2022-10-20T20:53:30.523Z,17.02
2022-10-20T20:56:00.217Z,11.07
2022-10-20T20:58:27.744Z,15.23
2022-10-20T21:01:04.645Z,14.93
2022-10-20T21:03:31.596Z,15.48
2022-10-20T21:06:02.578Z,12.88
2022-10-20T21:08:29.184Z,13.85
2022-10-20T21:10:55.796Z,15.98
2022-10-20T21:13:22.436Z,30.60
2022-10-20T21:15:49.029Z,14.98
2022-10-20T21:18:15.662Z,19.85
2022-10-20T21:20:42.242Z,16.73
2022-10-20T21:23:08.829Z,20.88
2022-10-20T21:25:35.421Z,14.52
2022-10-20T21:28:02.047Z,13.20
2022-10-20T21:30:28.743Z,13.82
2022-10-20T21:32:55.481Z,11.63
2022-10-20T21:35:22.143Z,12.45
2022-10-20T21:37:48.910Z,16.90
2022-10-20T21:40:15.702Z,13.15
2022-10-20T21:42:42.390Z,17.10
2022-10-20T21:45:09.227Z,15.15
2022-10-20T21:47:35.869Z,14.00
2022-10-20T21:50:02.481Z,25.63
2022-10-20T21:52:29.140Z,13.85
2022-10-20T21:54:55.933Z,14.80
2022-10-20T21:57:22.573Z,23.63
2022-10-20T21:59:50.423Z,15.50
2022-10-20T22:02:17.065Z,13.48
2022-10-20T22:04:43.877Z,16.65
2022-10-20T22:07:10.458Z,21.52
2022-10-20T22:09:37.047Z,17.40
2022-10-20T22:12:03.707Z,17.35
2022-10-20T22:14:30.580Z,13.82
2022-10-20T22:16:57.380Z,17.90
2022-10-20T22:19:24.131Z,11.80
2022-10-20T22:21:51.525Z,13.93
2022-10-20T22:24:18.933Z,12.98
2022-10-20T22:26:45.696Z,13.77
2022-10-20T22:29:12.397Z,14.93
2022-10-20T22:31:39.433Z,18.85
2022-10-20T22:34:06.294Z,16.77
2022-10-20T22:36:32.958Z,21.77
2022-10-20T22:38:59.568Z,16.75
2022-10-20T22:41:26.228Z,17.08
2022-10-20T22:43:52.876Z,16.58
2022-10-20T22:46:19.515Z,11.88
2022-10-20T22:48:46.371Z,15.80
2022-10-20T22:51:13.211Z,15.45
2022-10-20T22:53:40.286Z,14.07
2022-10-20T22:56:09.433Z,15.38
2022-10-20T22:58:36.362Z,14.27
2022-10-20T23:01:09.135Z,14.68
2022-10-20T23:06:07.654Z,13.60
2022-10-20T23:08:38.533Z,17.50
2022-10-20T23:11:05.318Z,14.00
2022-10-20T23:13:31.972Z,11.25
2022-10-20T23:15:58.561Z,11.90
2022-10-20T23:18:25.179Z,17.92
2022-10-20T23:20:53.752Z,11.90
2022-10-20T23:23:22.724Z,17.38
2022-10-20T23:25:50.591Z,23.83
2022-10-20T23:28:17.714Z,15.35
2022-10-20T23:30:44.398Z,14.35
2022-10-20T23:33:11.093Z,14.75
2022-10-20T23:35:37.998Z,16.05
2022-10-20T23:38:04.898Z,11.93
2022-10-20T23:40:31.468Z,9.45
2022-10-20T23:42:58.109Z,16.65
2022-10-20T23:45:24.753Z,14.98
2022-10-20T23:47:51.347Z,9.93
2022-10-20T23:50:21.008Z,13.45
2022-10-20T23:52:48.072Z,14.80
2022-10-20T23:55:15.686Z,11.63
2022-10-20T23:57:42.535Z,10.80
